createdAt,value
2018-07-25T00:00:25.978Z,15.40
2018-07-25T00:02:30.616Z,17.23
2018-07-25T00:04:35.271Z,16.33
2018-07-25T00:06:39.940Z,16.03
2018-07-25T00:08:44.808Z,17.07
2018-07-25T00:10:54.211Z,18.17
2018-07-25T00:13:02.822Z,20.97
2018-07-25T00:15:10.532Z,18.33
2018-07-25T00:17:18.987Z,17.80
2018-07-25T00:19:28.687Z,18.00
2018-07-25T00:21:37.164Z,16.70
2018-07-25T00:23:42.274Z,17.90
2018-07-25T00:25:47.516Z,17.37
2018-07-25T00:27:52.265Z,19.07
2018-07-25T00:29:57.144Z,18.03
2018-07-25T00:32:08.702Z,18.07
2018-07-25T00:34:16.412Z,19.53
2018-07-25T00:36:23.331Z,18.00
2018-07-25T00:38:29.229Z,17.07
2018-07-25T00:40:34.242Z,18.13
2018-07-25T00:42:38.824Z,18.57
2018-07-25T00:44:44.541Z,18.43
2018-07-25T00:46:50.142Z,16.73
2018-07-25T00:48:55.804Z,16.50
2018-07-25T00:51:13.879Z,16.60
2018-07-25T00:53:26.959Z,18.57
2018-07-25T00:55:32.663Z,18.53
2018-07-25T00:57:38.497Z,17.27
2018-07-25T00:59:43.000Z,18.60
2018-07-25T01:01:56.168Z,18.10
2018-07-25T01:06:11.071Z,18.90
2018-07-25T01:08:15.765Z,16.40
2018-07-25T01:10:29.037Z,18.73
2018-07-25T01:12:51.383Z,16.63
2018-07-25T01:16:36.323Z,19.50
2018-07-25T01:18:48.270Z,18.60
2018-07-25T01:20:53.848Z,17.83
2018-07-25T01:22:58.679Z,18.93
2018-07-25T01:25:03.551Z,19.57
2018-07-25T01:29:28.706Z,18.00
2018-07-25T01:31:33.391Z,18.70
2018-07-25T01:33:38.050Z,18.90
2018-07-25T01:35:42.621Z,19.57
2018-07-25T01:37:47.471Z,21.27
2018-07-25T01:39:52.076Z,21.53
2018-07-25T01:41:56.741Z,19.13
2018-07-25T01:44:01.987Z,18.10
2018-07-25T01:46:07.853Z,18.70
2018-07-25T01:48:12.949Z,17.47
2018-07-25T01:50:17.663Z,20.00
2018-07-25T01:52:22.291Z,18.17
2018-07-25T01:54:26.989Z,18.53
2018-07-25T01:56:31.769Z,17.27
2018-07-25T01:58:38.729Z,17.47
2018-07-25T02:00:50.979Z,18.90
2018-07-25T02:02:55.573Z,18.30
2018-07-25T02:05:01.235Z,19.47
2018-07-25T02:07:05.494Z,17.80
2018-07-25T02:09:12.373Z,18.23
2018-07-25T02:11:16.939Z,18.80
2018-07-25T02:13:21.610Z,18.87
2018-07-25T02:15:29.334Z,18.77
2018-07-25T02:17:41.596Z,19.37
2018-07-25T02:19:46.115Z,23.10
2018-07-25T02:21:53.848Z,17.40
2018-07-25T02:23:58.551Z,19.93
2018-07-25T02:26:07.042Z,19.13
2018-07-25T02:28:12.915Z,18.73
2018-07-25T02:30:19.630Z,19.13
2018-07-25T02:32:24.635Z,18.40
2018-07-25T02:34:30.920Z,17.63
2018-07-25T02:36:36.910Z,18.80
2018-07-25T02:38:41.517Z,18.47
2018-07-25T02:40:46.104Z,19.87
2018-07-25T02:42:54.154Z,20.07
2018-07-25T02:45:00.296Z,18.60
2018-07-25T02:47:05.947Z,19.60
2018-07-25T02:49:10.747Z,18.97
2018-07-25T02:51:17.950Z,18.97
2018-07-25T02:53:43.472Z,19.70
2018-07-25T02:55:48.119Z,20.33
2018-07-25T02:57:52.868Z,20.30
2018-07-25T02:59:57.405Z,20.23
2018-07-25T03:02:06.399Z,20.47
2018-07-25T03:04:11.077Z,20.63
2018-07-25T03:06:16.007Z,20.03
2018-07-25T03:08:20.623Z,21.77
2018-07-25T03:10:34.585Z,19.33
2018-07-25T03:12:39.310Z,21.80
2018-07-25T03:14:43.893Z,18.47
2018-07-25T03:16:48.532Z,18.60
2018-07-25T03:18:58.486Z,18.63
2018-07-25T03:21:03.265Z,18.87
2018-07-25T03:23:08.517Z,19.43
2018-07-25T03:25:13.039Z,19.87
2018-07-25T03:27:19.486Z,20.10
2018-07-25T03:29:24.137Z,19.60
2018-07-25T03:31:29.212Z,22.47
2018-07-25T03:33:33.888Z,19.67
2018-07-25T03:35:38.930Z,19.63
2018-07-25T03:37:44.605Z,22.73
2018-07-25T03:39:50.207Z,17.77
2018-07-25T03:41:57.592Z,20.17
2018-07-25T03:44:02.295Z,17.87
2018-07-25T03:46:11.212Z,20.30
2018-07-25T03:48:16.937Z,18.97
2018-07-25T03:50:21.703Z,19.63
2018-07-25T03:52:27.000Z,20.17
2018-07-25T03:54:34.110Z,19.83
2018-07-25T03:56:40.351Z,19.97
2018-07-25T03:58:45.114Z,20.23
2018-07-25T04:00:49.637Z,21.80
2018-07-25T04:03:02.655Z,20.53
2018-07-25T04:05:11.173Z,22.30
2018-07-25T04:07:16.742Z,24.60
2018-07-25T04:09:23.407Z,19.60
2018-07-25T04:11:27.760Z,19.67
2018-07-25T04:13:32.466Z,21.10
2018-07-25T04:15:37.054Z,21.03
2018-07-25T04:17:44.628Z,25.17
2018-07-25T04:19:49.184Z,21.17
2018-07-25T04:22:04.003Z,24.90
2018-07-25T04:24:09.011Z,20.53
2018-07-25T04:26:13.721Z,22.00
2018-07-25T04:28:18.296Z,19.67
2018-07-25T04:30:26.685Z,21.20
2018-07-25T04:32:32.467Z,19.57
2018-07-25T04:34:41.303Z,18.37
2018-07-25T04:36:45.812Z,19.33
2018-07-25T04:38:51.790Z,20.27
2018-07-25T04:40:56.313Z,18.90
2018-07-25T04:43:04.771Z,21.77
2018-07-25T04:45:10.800Z,26.60
2018-07-25T04:47:17.549Z,18.90
2018-07-25T04:49:23.646Z,26.90
2018-07-25T04:51:30.204Z,21.40
2018-07-25T04:53:34.879Z,22.90
2018-07-25T04:55:41.514Z,23.97
2018-07-25T04:57:47.272Z,20.23
2018-07-25T04:59:54.852Z,22.50
2018-07-25T05:01:59.449Z,19.83
2018-07-25T05:04:10.881Z,20.50
2018-07-25T05:06:17.708Z,19.93
2018-07-25T05:08:22.432Z,23.93
2018-07-25T05:10:27.048Z,21.67
2018-07-25T05:12:37.307Z,21.73
2018-07-25T05:14:41.897Z,21.23
2018-07-25T05:16:46.577Z,23.20
2018-07-25T05:18:54.467Z,24.07
2018-07-25T05:21:00.206Z,22.07
2018-07-25T05:23:07.013Z,23.93
2018-07-25T05:25:11.618Z,26.83
2018-07-25T05:27:17.209Z,21.30
2018-07-25T05:29:28.311Z,25.70
2018-07-25T05:31:33.007Z,19.20
2018-07-25T05:33:40.045Z,22.03
2018-07-25T05:35:44.622Z,21.03
2018-07-25T05:38:01.957Z,24.53
2018-07-25T05:40:06.639Z,23.70
2018-07-25T05:42:11.298Z,24.50
2018-07-25T05:44:16.216Z,23.20
2018-07-25T05:46:23.325Z,27.90
2018-07-25T05:48:28.012Z,24.57
2018-07-25T05:50:32.780Z,21.57
2018-07-25T05:52:42.790Z,22.00
2018-07-25T05:54:49.792Z,23.57
2018-07-25T05:56:54.651Z,21.63
2018-07-25T05:58:59.989Z,23.17
2018-07-25T06:01:07.549Z,22.93
2018-07-25T06:03:13.379Z,20.80
2018-07-25T06:05:19.086Z,26.30
2018-07-25T06:07:23.721Z,20.37
2018-07-25T06:11:49.545Z,20.70
2018-07-25T06:13:54.170Z,21.33
2018-07-25T06:15:58.708Z,19.53
2018-07-25T06:18:08.479Z,20.53
2018-07-25T06:20:13.028Z,19.30
2018-07-25T06:22:17.635Z,18.70
2018-07-25T06:24:22.335Z,19.33
2018-07-25T06:26:28.015Z,20.40
2018-07-25T06:28:34.221Z,18.80
2018-07-25T06:30:38.858Z,17.70
2018-07-25T06:32:43.397Z,19.50
2018-07-25T06:34:48.843Z,20.50
2018-07-25T06:36:54.422Z,18.27
2018-07-25T06:38:59.028Z,17.17
2018-07-25T06:41:06.743Z,19.50
2018-07-25T06:43:11.342Z,19.37
2018-07-25T06:45:15.900Z,17.70
2018-07-25T06:47:20.485Z,18.03
2018-07-25T06:49:32.075Z,17.60
2018-07-25T06:51:37.029Z,16.33
2018-07-25T06:53:41.668Z,17.50
2018-07-25T06:55:46.050Z,19.73
2018-07-25T06:57:53.241Z,16.13
2018-07-25T06:59:58.981Z,17.80
2018-07-25T07:02:03.679Z,15.77
2018-07-25T07:04:08.846Z,16.97
2018-07-25T07:06:23.009Z,20.73
2018-07-25T07:08:27.715Z,15.03
2018-07-25T07:10:34.299Z,16.67
2018-07-25T07:12:38.891Z,15.70
2018-07-25T07:14:44.419Z,18.97
2018-07-25T07:16:51.911Z,14.93
2018-07-25T07:18:57.725Z,14.87
2018-07-25T07:21:02.453Z,12.60
2018-07-25T07:23:08.998Z,12.90
2018-07-25T07:25:27.055Z,13.70
2018-07-25T07:27:31.726Z,16.47
2018-07-25T07:29:37.191Z,12.77
2018-07-25T07:31:41.794Z,14.90
2018-07-25T07:36:15.865Z,9.63
2018-07-25T07:40:30.268Z,10.40
2018-07-25T07:42:34.612Z,14.23
2018-07-25T07:44:39.659Z,13.50
2018-07-25T07:46:52.970Z,11.43
2018-07-25T07:48:57.595Z,10.90
2018-07-25T07:51:03.248Z,11.10
2018-07-25T07:53:09.747Z,23.40
2018-07-25T07:55:14.360Z,11.97
2018-07-25T07:57:19.123Z,12.57
2018-07-25T07:59:25.675Z,12.00
2018-07-25T08:01:35.302Z,15.03
2018-07-25T08:03:40.039Z,9.70
2018-07-25T08:05:45.430Z,10.63
2018-07-25T08:08:04.216Z,12.23
2018-07-25T08:10:09.546Z,10.83
2018-07-25T08:12:14.337Z,10.77
2018-07-25T08:14:19.030Z,10.87
2018-07-25T08:16:26.818Z,14.53
2018-07-25T08:18:31.586Z,11.20
2018-07-25T08:20:36.536Z,14.67
2018-07-25T08:22:41.184Z,10.13
2018-07-25T08:24:46.008Z,11.70
2018-07-25T08:27:03.865Z,15.63
2018-07-25T08:29:08.674Z,12.63
2018-07-25T08:31:13.364Z,11.27
2018-07-25T08:33:18.190Z,13.03
2018-07-25T08:35:27.395Z,13.73
2018-07-25T08:37:32.023Z,9.20
2018-07-25T08:39:38.610Z,14.80
2018-07-25T08:41:43.367Z,10.83
2018-07-25T08:43:50.229Z,14.00
2018-07-25T08:45:54.955Z,11.77
2018-07-25T08:48:00.934Z,11.17
2018-07-25T08:50:09.713Z,9.83
2018-07-25T08:54:38.165Z,10.23
2018-07-25T08:56:42.864Z,9.43
2018-07-25T08:58:47.718Z,9.10
2018-07-25T09:00:52.478Z,10.50
2018-07-25T09:03:02.887Z,11.60
2018-07-25T09:05:07.673Z,10.37
2018-07-25T09:07:12.397Z,9.50
2018-07-25T09:09:16.876Z,10.30
2018-07-25T09:11:27.131Z,9.30
2018-07-25T09:13:33.232Z,11.23
2018-07-25T09:15:41.279Z,9.83
2018-07-25T09:17:46.004Z,10.70
2018-07-25T09:19:57.135Z,9.07
2018-07-25T09:22:01.847Z,8.87
2018-07-25T09:24:08.128Z,8.40
2018-07-25T09:26:12.707Z,9.37
2018-07-25T09:28:18.165Z,10.00
2018-07-25T09:30:23.176Z,8.37
2018-07-25T09:32:29.111Z,9.80
2018-07-25T09:34:33.758Z,10.80
2018-07-25T09:36:39.122Z,7.83
2018-07-25T09:38:44.775Z,6.97
2018-07-25T09:40:49.540Z,7.67
2018-07-25T09:42:56.092Z,9.43
2018-07-25T09:45:01.092Z,7.30
2018-07-25T09:47:11.728Z,8.43
2018-07-25T09:49:19.193Z,9.33
2018-07-25T09:51:24.710Z,7.37
2018-07-25T09:53:30.077Z,7.97
2018-07-25T09:55:39.480Z,7.63
2018-07-25T09:57:44.818Z,8.13
2018-07-25T09:59:50.569Z,14.33
2018-07-25T10:01:55.229Z,24.73
2018-07-25T10:04:02.175Z,7.97
2018-07-25T10:06:13.053Z,9.43
2018-07-25T10:08:22.695Z,10.53
2018-07-25T10:10:27.740Z,7.00
2018-07-25T10:12:39.451Z,10.17
2018-07-25T10:14:44.160Z,7.30
2018-07-25T10:16:55.245Z,7.80
2018-07-25T10:19:00.024Z,7.03
2018-07-25T10:21:04.881Z,6.93
2018-07-25T10:23:09.624Z,9.43
2018-07-25T10:25:13.943Z,6.83
2018-07-25T10:27:18.749Z,9.03
2018-07-25T10:29:25.109Z,7.23
2018-07-25T10:31:30.624Z,10.73
2018-07-25T10:33:46.897Z,6.53
2018-07-25T10:35:51.544Z,6.60
2018-07-25T10:37:56.295Z,7.50
2018-07-25T10:40:01.007Z,8.03
2018-07-25T10:42:13.427Z,8.83
2018-07-25T10:44:18.093Z,11.20
2018-07-25T10:46:22.953Z,9.97
2018-07-25T10:48:29.555Z,7.77
2018-07-25T10:50:40.970Z,7.83
2018-07-25T10:52:45.595Z,8.33
2018-07-25T10:54:50.372Z,7.00
2018-07-25T10:56:56.075Z,6.83
2018-07-25T10:59:07.276Z,9.27
2018-07-25T11:01:12.085Z,7.50
2018-07-25T11:03:16.832Z,8.57
2018-07-25T11:05:21.492Z,7.73
2018-07-25T11:07:43.690Z,9.80
2018-07-25T11:09:58.871Z,10.83
2018-07-25T11:12:19.346Z,7.70
2018-07-25T11:14:44.104Z,7.30
2018-07-25T11:16:49.299Z,8.90
2018-07-25T11:18:54.354Z,7.90
2018-07-25T11:20:59.024Z,8.63
2018-07-25T11:23:04.883Z,6.40
2018-07-25T11:25:30.999Z,7.03
2018-07-25T11:29:54.015Z,7.27
2018-07-25T11:31:59.278Z,6.63
2018-07-25T11:34:04.305Z,7.23
2018-07-25T11:36:17.248Z,6.93
2018-07-25T11:41:12.584Z,7.40
2018-07-25T11:43:51.986Z,8.30
2018-07-25T11:46:02.380Z,9.80
2018-07-25T11:48:10.652Z,8.13
2018-07-25T11:50:15.741Z,8.07
2018-07-25T11:52:20.459Z,6.90
2018-07-25T11:54:26.084Z,6.40
2018-07-25T11:56:49.057Z,7.30
2018-07-25T11:59:08.565Z,7.20
2018-07-25T12:03:50.566Z,7.20
2018-07-25T12:05:59.055Z,8.00
2018-07-25T12:08:03.725Z,9.27
2018-07-25T12:10:10.067Z,11.83
2018-07-25T12:12:15.956Z,7.67
2018-07-25T12:14:29.765Z,8.80
2018-07-25T12:16:35.486Z,6.70
2018-07-25T12:18:40.332Z,8.30
2018-07-25T12:20:45.197Z,7.57
2018-07-25T12:22:50.995Z,8.33
2018-07-25T12:24:55.652Z,11.17
2018-07-25T12:27:02.650Z,7.60
2018-07-25T12:29:09.203Z,8.70
2018-07-25T12:31:14.007Z,8.17
2018-07-25T12:33:18.804Z,6.83
2018-07-25T12:35:26.679Z,6.73
2018-07-25T12:37:36.190Z,8.50
2018-07-25T12:39:42.170Z,9.40
2018-07-25T12:41:58.741Z,7.23
2018-07-25T12:44:03.675Z,9.00
2018-07-25T12:46:10.466Z,8.80
2018-07-25T12:48:15.122Z,9.20
2018-07-25T12:50:23.896Z,7.83
2018-07-25T12:52:35.840Z,8.77
2018-07-25T12:54:43.275Z,9.33
2018-07-25T12:56:48.096Z,7.30
2018-07-25T12:58:53.562Z,7.23
2018-07-25T13:01:01.764Z,6.83
2018-07-25T13:06:46.256Z,6.93
2018-07-25T13:08:50.943Z,8.13
2018-07-25T13:10:55.983Z,7.43
2018-07-25T13:13:00.861Z,7.90
2018-07-25T13:15:08.528Z,7.23
2018-07-25T13:17:13.312Z,8.70
2018-07-25T13:19:20.192Z,10.97
2018-07-25T13:21:25.595Z,6.90
2018-07-25T13:23:38.242Z,16.17
2018-07-25T13:25:42.945Z,8.27
2018-07-25T13:27:47.562Z,9.63
2018-07-25T13:29:52.272Z,9.77
2018-07-25T13:32:04.712Z,14.07
2018-07-25T13:34:09.364Z,7.10
2018-07-25T13:36:14.196Z,10.87
2018-07-25T13:38:19.817Z,6.50
2018-07-25T13:40:32.394Z,6.30
2018-07-25T13:42:37.095Z,7.07
2018-07-25T13:44:41.830Z,9.33
2018-07-25T13:46:46.700Z,8.93
2018-07-25T13:49:08.498Z,8.27
2018-07-25T13:51:13.169Z,7.20
2018-07-25T13:53:20.642Z,8.17
2018-07-25T13:55:25.355Z,7.80
2018-07-25T13:57:32.224Z,11.30
2018-07-25T13:59:40.234Z,8.37
2018-07-25T14:01:45.214Z,7.70
2018-07-25T14:03:50.007Z,6.67
2018-07-25T14:05:58.799Z,7.93
2018-07-25T14:08:04.332Z,11.93
2018-07-25T14:10:09.402Z,12.23
2018-07-25T14:12:14.092Z,6.63
2018-07-25T14:14:21.831Z,6.23
2018-07-25T14:16:27.157Z,9.13
2018-07-25T14:18:34.931Z,10.43
2018-07-25T14:20:39.863Z,6.23
2018-07-25T14:22:45.849Z,11.67
2018-07-25T14:24:52.034Z,7.00
2018-07-25T14:26:58.709Z,10.80
2018-07-25T14:29:03.688Z,6.93
2018-07-25T14:31:09.014Z,8.80
2018-07-25T14:33:13.869Z,15.67
2018-07-25T14:35:19.666Z,11.77
2018-07-25T14:37:24.288Z,6.90
2018-07-25T14:39:29.081Z,7.43
2018-07-25T14:41:33.799Z,7.57
2018-07-25T14:43:39.765Z,10.00
2018-07-25T14:45:47.411Z,7.57
2018-07-25T14:47:52.177Z,7.60
2018-07-25T14:49:57.110Z,11.63
2018-07-25T14:52:02.710Z,9.13
2018-07-25T14:54:09.722Z,12.87
2018-07-25T14:56:14.410Z,8.73
2018-07-25T14:58:19.022Z,8.00
2018-07-25T15:00:25.993Z,7.80
2018-07-25T15:02:32.420Z,15.90
2018-07-25T15:04:38.171Z,8.77
2018-07-25T15:06:42.800Z,13.70
2018-07-25T15:08:47.721Z,24.93
2018-07-25T15:10:52.370Z,12.97
2018-07-25T15:12:57.664Z,9.83
2018-07-25T15:15:02.570Z,10.80
2018-07-25T15:17:09.246Z,15.50
2018-07-25T15:19:13.872Z,17.50
2018-07-25T15:21:19.040Z,15.37
2018-07-25T15:23:36.599Z,13.30
2018-07-25T15:25:41.861Z,11.90
2018-07-25T15:27:46.626Z,9.13
2018-07-25T15:29:51.409Z,12.80
2018-07-25T15:31:57.075Z,11.40
2018-07-25T15:34:09.170Z,15.70
2018-07-25T15:36:22.499Z,57.63
2018-07-25T15:38:29.526Z,55.37
2018-07-25T15:40:34.360Z,54.17
2018-07-25T15:42:39.361Z,39.30
2018-07-25T15:44:45.571Z,21.30
2018-07-25T15:46:51.842Z,34.07
2018-07-25T15:48:56.882Z,52.60
2018-07-25T15:51:03.729Z,29.10
2018-07-25T15:53:09.668Z,18.90
2018-07-25T15:55:14.326Z,38.13
2018-07-25T15:57:18.984Z,35.37
2018-07-25T15:59:31.673Z,28.27
2018-07-25T16:01:37.635Z,30.03
2018-07-25T16:03:42.693Z,24.90
2018-07-25T16:05:47.373Z,26.50
2018-07-25T16:07:56.937Z,11.87
2018-07-25T16:10:03.055Z,14.70
2018-07-25T16:12:11.202Z,9.33
2018-07-25T16:14:16.265Z,21.10
2018-07-25T16:16:23.591Z,13.93
2018-07-25T16:18:47.911Z,12.30
2018-07-25T16:20:52.921Z,10.00
2018-07-25T16:22:58.753Z,12.07
2018-07-25T16:25:03.804Z,9.30
2018-07-25T16:27:10.771Z,16.73
2018-07-25T16:29:15.505Z,12.50
2018-07-25T16:31:20.215Z,9.77
2018-07-25T16:33:24.818Z,10.73
2018-07-25T16:35:37.592Z,9.33
2018-07-25T16:37:42.292Z,9.67
2018-07-25T16:39:47.063Z,11.30
2018-07-25T16:41:51.692Z,47.60
2018-07-25T16:43:56.448Z,16.07
2018-07-25T16:46:02.509Z,10.20
2018-07-25T16:48:07.541Z,10.77
2018-07-25T16:50:12.232Z,7.27
2018-07-25T16:52:17.234Z,8.03
2018-07-25T16:54:22.734Z,8.37
2018-07-25T16:56:27.470Z,8.10
2018-07-25T16:58:32.921Z,31.57
2018-07-25T17:00:39.864Z,10.63
2018-07-25T17:02:44.532Z,13.50
2018-07-25T17:04:49.163Z,9.97
2018-07-25T17:06:54.975Z,10.97
2018-07-25T17:09:07.959Z,20.40
2018-07-25T17:11:12.634Z,26.43
2018-07-25T17:13:17.415Z,6.87
2018-07-25T17:15:33.667Z,14.97
2018-07-25T17:17:38.413Z,6.53
2018-07-25T17:19:44.401Z,7.10
2018-07-25T17:21:49.128Z,7.13
2018-07-25T17:23:53.946Z,8.20
2018-07-25T17:26:00.245Z,12.73
2018-07-25T17:28:06.565Z,13.43
2018-07-25T17:30:11.246Z,12.27
2018-07-25T17:32:18.267Z,9.17
2018-07-25T17:34:40.931Z,19.57
2018-07-25T17:36:48.530Z,7.13
2018-07-25T17:38:53.246Z,8.70
2018-07-25T17:40:58.631Z,6.97
2018-07-25T17:43:03.451Z,10.30
2018-07-25T17:45:13.504Z,11.30
2018-07-25T17:47:18.486Z,9.73
2018-07-25T17:49:23.269Z,7.13
2018-07-25T17:51:28.119Z,18.00
2018-07-25T17:53:39.525Z,8.67
2018-07-25T17:55:44.213Z,9.23
2018-07-25T17:57:50.077Z,6.70
2018-07-25T17:59:54.342Z,8.23
2018-07-25T18:02:06.862Z,12.83
2018-07-25T18:04:11.458Z,6.77
2018-07-25T18:06:16.317Z,8.93
2018-07-25T18:08:21.014Z,7.60
2018-07-25T18:10:33.014Z,6.73
2018-07-25T18:12:37.736Z,6.90
2018-07-25T18:14:42.492Z,7.80
2018-07-25T18:16:47.138Z,6.27
2018-07-25T18:18:52.707Z,8.10
2018-07-25T18:20:57.286Z,7.17
2018-07-25T18:23:02.221Z,6.40
2018-07-25T18:25:07.658Z,6.10
2018-07-25T18:27:12.641Z,9.10
2018-07-25T18:29:17.331Z,9.27
2018-07-25T18:31:22.150Z,7.70
2018-07-25T18:33:28.388Z,8.07
2018-07-25T18:35:37.267Z,7.20
2018-07-25T18:37:41.886Z,6.40
2018-07-25T18:39:46.631Z,7.33
2018-07-25T18:41:53.222Z,7.03
2018-07-25T18:44:00.585Z,8.60
2018-07-25T18:46:05.326Z,10.33
2018-07-25T18:48:10.577Z,8.10
2018-07-25T18:50:15.266Z,9.20
2018-07-25T18:52:20.080Z,8.00
2018-07-25T18:54:24.913Z,7.30
2018-07-25T18:56:29.672Z,8.43
2018-07-25T18:58:35.360Z,8.10
2018-07-25T19:00:40.197Z,11.47
2018-07-25T19:02:44.910Z,11.93
2018-07-25T19:05:01.381Z,9.07
2018-07-25T19:07:07.951Z,8.97
2018-07-25T19:09:15.190Z,10.63
2018-07-25T19:11:22.407Z,8.33
2018-07-25T19:13:36.213Z,15.10
2018-07-25T19:15:48.272Z,13.03
2018-07-25T19:17:53.444Z,12.67
2018-07-25T19:20:01.196Z,12.20
2018-07-25T19:22:06.503Z,12.50
2018-07-25T19:24:18.621Z,11.70
2018-07-25T19:26:24.149Z,15.50
2018-07-25T19:28:35.247Z,14.07
2018-07-25T19:30:40.205Z,18.50
2018-07-25T19:32:46.038Z,15.87
2018-07-25T19:34:50.768Z,13.10
2018-07-25T19:37:02.704Z,17.13
2018-07-25T19:39:10.659Z,10.00
2018-07-25T19:41:15.748Z,16.53
2018-07-25T19:43:20.307Z,8.10
2018-07-25T19:45:26.341Z,11.90
2018-07-25T19:47:31.123Z,9.43
2018-07-25T19:49:39.748Z,10.13
2018-07-25T19:51:44.409Z,9.90
2018-07-25T19:53:49.399Z,12.07
2018-07-25T19:55:54.022Z,11.40
2018-07-25T19:57:59.655Z,8.87
2018-07-25T20:00:04.376Z,12.50
2018-07-25T20:02:11.052Z,16.03
2018-07-25T20:04:15.610Z,12.47
2018-07-25T20:06:22.276Z,10.77
2018-07-25T20:08:26.943Z,18.87
2018-07-25T20:10:36.394Z,12.17
2018-07-25T20:12:42.456Z,20.37
2018-07-25T20:14:52.220Z,17.03
2018-07-25T20:16:57.016Z,12.93
2018-07-25T20:21:11.645Z,13.93
2018-07-25T20:23:16.803Z,9.90
2018-07-25T20:25:37.848Z,14.03
2018-07-25T20:27:43.057Z,8.77
2018-07-25T20:29:47.819Z,12.57
2018-07-25T20:31:54.531Z,11.53
2018-07-25T20:33:59.177Z,12.37
2018-07-25T20:36:03.812Z,9.90
2018-07-25T20:38:09.300Z,11.00
2018-07-25T20:40:17.482Z,16.03
2018-07-25T20:42:22.536Z,12.47
2018-07-25T20:44:27.199Z,10.90
2018-07-25T20:46:33.076Z,13.63
2018-07-25T20:48:40.842Z,10.60
2018-07-25T20:50:52.367Z,11.40
2018-07-25T20:53:02.154Z,9.20
2018-07-25T20:55:10.720Z,12.30
2018-07-25T20:57:22.741Z,11.47
2018-07-25T20:59:34.035Z,9.70
2018-07-25T21:01:43.123Z,10.13
2018-07-25T21:03:53.419Z,11.10
2018-07-25T21:06:05.080Z,10.50
2018-07-25T21:08:13.495Z,8.67
2018-07-25T21:10:28.054Z,10.10
2018-07-25T21:12:36.753Z,10.23
2018-07-25T21:14:45.405Z,10.03
2018-07-25T21:16:53.971Z,10.77
2018-07-25T21:19:11.027Z,9.80
2018-07-25T21:21:15.845Z,10.20
2018-07-25T21:23:24.524Z,10.13
2018-07-25T21:25:29.168Z,14.90
2018-07-25T21:27:34.340Z,9.77
2018-07-25T21:31:53.599Z,9.63
2018-07-25T21:33:58.512Z,9.20
2018-07-25T21:36:03.320Z,9.93
2018-07-25T21:38:10.043Z,10.67
2018-07-25T21:40:14.696Z,10.63
2018-07-25T21:42:19.328Z,12.87
2018-07-25T21:44:24.675Z,11.33
2018-07-25T21:46:30.833Z,15.83
2018-07-25T21:48:35.388Z,11.27
2018-07-25T21:50:41.059Z,10.87
2018-07-25T21:52:45.623Z,12.23
2018-07-25T21:54:50.881Z,9.80
2018-07-25T21:56:55.314Z,11.47
2018-07-25T21:59:13.991Z,10.80
2018-07-25T22:01:19.209Z,11.20
2018-07-25T22:03:24.878Z,17.10
2018-07-25T22:05:29.510Z,11.53
2018-07-25T22:07:38.225Z,12.87
2018-07-25T22:09:42.792Z,9.63
2018-07-25T22:11:47.390Z,10.83
2018-07-25T22:13:54.802Z,10.57
2018-07-25T22:16:00.173Z,9.73
2018-07-25T22:18:05.727Z,10.07
2018-07-25T22:20:20.689Z,11.43
2018-07-25T22:22:25.327Z,10.77
2018-07-25T22:24:30.079Z,11.00
2018-07-25T22:26:34.740Z,10.83
2018-07-25T22:28:45.240Z,11.77
2018-07-25T22:30:49.817Z,9.97
2018-07-25T22:32:55.504Z,11.00
2018-07-25T22:35:02.365Z,9.60
2018-07-25T22:37:10.972Z,10.70
2018-07-25T22:39:15.553Z,11.67
2018-07-25T22:41:20.147Z,10.60
2018-07-25T22:43:24.798Z,11.30
2018-07-25T22:45:34.440Z,12.80
2018-07-25T22:47:39.115Z,11.50
2018-07-25T22:49:43.804Z,10.63
2018-07-25T22:51:48.399Z,11.57
2018-07-25T22:53:53.090Z,10.40
2018-07-25T22:55:57.625Z,11.50
2018-07-25T22:58:02.299Z,14.43
2018-07-25T23:00:09.784Z,11.00
2018-07-25T23:02:14.637Z,14.30
2018-07-25T23:04:20.244Z,13.00
2018-07-25T23:06:24.940Z,13.63
2018-07-25T23:08:30.590Z,10.67
2018-07-25T23:10:35.288Z,11.53
2018-07-25T23:12:40.143Z,11.40
2018-07-25T23:14:44.803Z,12.00
2018-07-25T23:16:56.924Z,10.63
2018-07-25T23:19:01.463Z,11.80
2018-07-25T23:21:07.018Z,11.70
2018-07-25T23:23:11.656Z,15.83
2018-07-25T23:27:31.833Z,12.33
2018-07-25T23:29:36.673Z,12.00
2018-07-25T23:31:41.225Z,13.47
2018-07-25T23:33:46.052Z,12.23
2018-07-25T23:35:50.673Z,12.13
2018-07-25T23:37:55.575Z,12.27
2018-07-25T23:40:00.149Z,11.53
2018-07-25T23:42:05.770Z,11.20
2018-07-25T23:44:10.335Z,11.10
2018-07-25T23:46:14.924Z,11.97
2018-07-25T23:48:20.726Z,11.73
2018-07-25T23:50:31.605Z,14.53
2018-07-25T23:52:36.189Z,11.03
2018-07-25T23:54:40.812Z,11.00
2018-07-25T23:56:45.367Z,16.00
2018-07-25T23:58:50.648Z,13.23
